Orbital elements of COSMOS 341
| Launched | 24 April 1970 |
| Flight ended | – |
| Launch site | Plesetsk Missile and Space Complex, Russia |
| Owner | Commonwealth of Independent States (former USSR) |
| NORAD ID | 4388 |
| Date fetched |
Epoch osculation |
Inc. [°] |
Ecc. | RA asc node [hr] |
Arg Peri. [°] |
Mean anom [°] |
Mean motion [rev/day] |
Abs. mag |
| Date fetched |
Epoch osculation |
Inc. [°] |
Ecc. | RA asc node [hr] |
Arg Peri. [°] |
Mean anom [°] |
Mean motion [rev/day] |
Abs. mag |
| 2026 May 09 17:57 | 2026 May 05 09:27:57 | 74.0277 | 0.00812 | 18.4771 | 199.0809 | 188.3356 | 12.64352 | – |
| 2026 May 08 17:57 | 2026 May 05 09:27:57 | 74.0277 | 0.00812 | 18.4771 | 199.0809 | 188.3356 | 12.64352 | – |
| 2026 May 07 17:58 | 2026 May 05 09:27:57 | 74.0277 | 0.00812 | 18.4771 | 199.0809 | 188.3356 | 12.64352 | – |
| 2026 May 06 17:57 | 2026 May 05 09:27:57 | 74.0277 | 0.00812 | 18.4771 | 199.0809 | 188.3356 | 12.64352 | – |
| 2026 May 05 17:57 | 2026 May 05 09:27:57 | 74.0277 | 0.00812 | 18.4771 | 199.0809 | 188.3356 | 12.64352 | – |
| 2026 May 04 17:57 | 2026 Apr 30 13:52:45 | 74.0272 | 0.00813 | 18.9154 | 206.4877 | 188.3356 | 12.64352 | – |
| 2026 May 03 17:57 | 2026 Apr 30 13:52:45 | 74.0272 | 0.00813 | 18.9154 | 206.4877 | 188.3356 | 12.64352 | – |
| 2026 May 02 17:57 | 2026 Apr 30 13:52:45 | 74.0272 | 0.00813 | 18.9154 | 206.4877 | 188.3356 | 12.64352 | – |
| 2026 May 01 17:56 | 2026 Apr 30 13:52:45 | 74.0272 | 0.00813 | 18.9154 | 206.4877 | 188.3356 | 12.64352 | – |
| 2026 Apr 30 17:56 | 2026 Apr 30 13:52:45 | 74.0272 | 0.00813 | 18.9154 | 206.4877 | 188.3356 | 12.64352 | – |
| 2026 Apr 29 17:57 | 2026 Apr 24 13:29:30 | 74.0270 | 0.00813 | 19.4630 | 215.7293 | 188.3356 | 12.64352 | – |
| 2026 Apr 28 17:56 | 2026 Apr 24 13:29:30 | 74.0270 | 0.00813 | 19.4630 | 215.7293 | 188.3356 | 12.64352 | – |
| 2026 Apr 27 17:58 | 2026 Apr 24 13:29:30 | 74.0270 | 0.00813 | 19.4630 | 215.7293 | 188.3356 | 12.64352 | – |
| 2026 Apr 26 17:58 | 2026 Apr 24 13:29:30 | 74.0270 | 0.00813 | 19.4630 | 215.7293 | 188.3356 | 12.64352 | – |
| 2026 Apr 25 17:58 | 2026 Apr 24 13:29:30 | 74.0270 | 0.00813 | 19.4630 | 215.7293 | 188.3356 | 12.64352 | – |
| 2026 Apr 24 17:59 | 2026 Apr 24 13:29:30 | 74.0270 | 0.00813 | 19.4630 | 215.7293 | 188.3356 | 12.64352 | – |
| 2026 Apr 23 17:57 | 2026 Apr 19 06:52:20 | 74.0273 | 0.00814 | 19.9433 | 223.8446 | 188.3356 | 12.64352 | – |
| 2026 Apr 22 17:57 | 2026 Apr 19 06:52:20 | 74.0273 | 0.00814 | 19.9433 | 223.8446 | 188.3356 | 12.64352 | – |
| 2026 Apr 21 17:57 | 2026 Apr 19 06:52:20 | 74.0273 | 0.00814 | 19.9433 | 223.8446 | 188.3356 | 12.64352 | – |
| 2026 Apr 20 17:57 | 2026 Apr 19 06:52:20 | 74.0273 | 0.00814 | 19.9433 | 223.8446 | 188.3356 | 12.64352 | – |
| 2026 Apr 19 17:58 | 2026 Apr 19 06:52:20 | 74.0273 | 0.00814 | 19.9433 | 223.8446 | 188.3356 | 12.64352 | – |
| 2026 Apr 18 17:56 | 2026 Apr 13 06:16:55 | 74.0282 | 0.00814 | 20.4916 | 233.1078 | 188.3356 | 12.64352 | – |
| 2026 Apr 16 17:57 | 2026 Apr 13 06:16:55 | 74.0282 | 0.00814 | 20.4916 | 233.1078 | 188.3356 | 12.64352 | – |
| 2026 Apr 14 17:57 | 2026 Apr 13 06:16:55 | 74.0282 | 0.00814 | 20.4916 | 233.1078 | 188.3356 | 12.64352 | – |
| 2026 Apr 13 17:57 | 2026 Apr 13 06:16:55 | 74.0282 | 0.00814 | 20.4916 | 233.1078 | 188.3356 | 12.64352 | – |
| 2026 Apr 12 17:57 | 2026 Apr 08 13:57:26 | 74.0288 | 0.00815 | 20.9176 | 240.3055 | 188.3356 | 12.64352 | – |